Time;durP1;ratioP1;P1;durP2;ratioP2;P2;SDS_P1;SDS_P2;PMS_P1;PMS_P2;Temp;Humidity;BMP_temperature;BMP_pressure;BME280_temperature;BME280_humidity;BME280_pressure;Samples;Min_cycle;Max_cycle;Signal;HPM_P1;HPM_P2
2022/10/05 00:00:45;;;;;;;4.43;2.50;;;8.20;99.90;;;;;;5054181;28;20183;-67
2022/10/05 00:03:14;;;;;;;4.23;2.30;;;8.20;99.90;;;;;;5054166;28;20666;-66
2022/10/05 00:05:46;;;;;;;3.80;2.60;;;8.20;99.90;;;;;;5053888;28;20227;-68
2022/10/05 00:08:17;;;;;;;4.40;3.00;;;8.10;99.90;;;;;;5054477;28;20200;-67
2022/10/05 00:10:46;;;;;;;6.97;3.00;;;8.10;99.90;;;;;;5054022;28;20188;-67
2022/10/05 00:13:19;;;;;;;4.90;3.00;;;8.10;99.90;;;;;;5053889;28;20219;-69
2022/10/05 00:15:49;;;;;;;7.67;3.03;;;8.00;99.90;;;;;;5053844;28;20227;-67
2022/10/05 00:18:20;;;;;;;4.63;3.40;;;8.00;99.90;;;;;;5053739;28;20570;-67
2022/10/05 00:20:49;;;;;;;4.57;3.30;;;8.00;99.90;;;;;;5053806;28;20188;-66
2022/10/05 00:23:21;;;;;;;5.90;3.00;;;7.90;99.90;;;;;;5053472;28;20203;-66
2022/10/05 00:25:50;;;;;;;5.03;3.30;;;7.90;99.90;;;;;;5054248;28;20223;-66
2022/10/05 00:28:26;;;;;;;5.13;3.63;;;7.90;99.90;;;;;;5053629;28;20210;-66
2022/10/05 00:30:56;;;;;;;6.00;3.40;;;7.90;99.90;;;;;;5053637;28;20187;-66
2022/10/05 00:33:25;;;;;;;4.73;3.20;;;7.90;99.90;;;;;;5035784;28;20207;-68
2022/10/05 00:35:54;;;;;;;6.13;3.30;;;7.80;99.90;;;;;;5053416;28;20208;-68
2022/10/05 00:38:23;;;;;;;6.30;3.47;;;7.80;99.90;;;;;;5053419;28;20184;-67
2022/10/05 00:41:04;;;;;;;5.13;3.20;;;7.90;99.90;;;;;;5057331;28;20219;-68
2022/10/05 00:44:00;;;;;;;4.73;2.93;;;7.80;99.90;;;;;;5063164;28;20218;-68
2022/10/05 00:46:38;;;;;;;5.30;3.37;;;7.80;99.90;;;;;;5036855;28;20231;-67
2022/10/05 00:49:16;;;;;;;5.17;3.43;;;7.80;99.90;;;;;;5052067;28;20654;-66
2022/10/05 00:51:55;;;;;;;6.60;3.77;;;7.80;99.90;;;;;;5052948;28;20191;-67
2022/10/05 00:54:31;;;;;;;3.60;3.30;;;7.80;99.90;;;;;;5051757;28;20179;-68
2022/10/05 00:57:16;;;;;;;7.73;3.67;;;7.70;99.90;;;;;;5051787;28;20215;-68
2022/10/05 00:59:58;;;;;;;5.33;3.40;;;7.70;99.90;;;;;;5061401;28;20222;-68
2022/10/05 01:02:33;;;;;;;6.13;3.07;;;7.70;99.90;;;;;;5073027;28;20194;-65
2022/10/05 01:05:11;;;;;;;6.17;3.00;;;7.70;99.90;;;;;;5071735;28;20659;-66
2022/10/05 01:07:47;;;;;;;2.73;2.23;;;7.60;99.90;;;;;;5071719;28;20197;-66
2022/10/05 01:10:24;;;;;;;3.37;2.90;;;7.60;99.90;;;;;;5072830;28;20187;-65
2022/10/05 01:13:02;;;;;;;2.97;2.50;;;7.60;99.90;;;;;;5072837;28;20190;-66
2022/10/05 01:15:38;;;;;;;5.70;2.40;;;7.60;99.90;;;;;;5071763;28;20223;-67
2022/10/05 01:18:14;;;;;;;3.13;2.33;;;7.60;99.90;;;;;;5072707;28;20196;-67
2022/10/05 01:20:51;;;;;;;4.23;2.30;;;7.70;99.90;;;;;;5072670;28;20580;-67
2022/10/05 01:23:50;;;;;;;2.87;2.33;;;7.60;99.90;;;;;;5072625;28;20195;-67
2022/10/05 01:26:42;;;;;;;3.30;2.60;;;7.60;99.90;;;;;;5058355;28;20224;-67
2022/10/05 01:29:20;;;;;;;2.63;2.40;;;7.50;99.90;;;;;;5052631;28;20207;-67
2022/10/05 01:31:54;;;;;;;5.40;2.73;;;7.50;99.90;;;;;;5060853;28;20211;-68
2022/10/05 01:34:30;;;;;;;3.27;2.60;;;7.40;99.90;;;;;;5071314;28;20190;-67
2022/10/05 01:37:04;;;;;;;5.33;2.90;;;7.40;99.90;;;;;;5055499;28;20218;-68
2022/10/05 01:39:43;;;;;;;6.60;3.03;;;7.40;99.90;;;;;;5052480;28;20214;-67
2022/10/05 01:42:17;;;;;;;5.67;3.23;;;7.30;99.90;;;;;;5051243;28;20199;-68
2022/10/05 01:44:54;;;;;;;3.43;2.97;;;7.30;99.90;;;;;;5052330;28;20207;-67
2022/10/05 01:47:30;;;;;;;4.57;2.67;;;7.30;99.90;;;;;;5052650;28;20219;-66
2022/10/05 01:50:03;;;;;;;3.73;2.70;;;7.30;99.90;;;;;;5069793;28;20207;-67
2022/10/05 01:52:43;;;;;;;4.00;2.20;;;7.30;99.90;;;;;;5070716;28;20209;-67
2022/10/05 01:55:22;;;;;;;2.60;2.00;;;7.30;99.90;;;;;;5071782;28;20230;-67
2022/10/05 01:58:04;;;;;;;2.33;2.13;;;7.30;99.90;;;;;;5070685;28;20209;-66
2022/10/05 02:00:42;;;;;;;3.70;1.93;;;7.30;99.90;;;;;;5070956;28;20249;-67
2022/10/05 02:03:18;;;;;;;3.53;2.30;;;7.30;99.90;;;;;;5072148;28;20214;-67
2022/10/05 02:05:52;;;;;;;3.53;2.37;;;7.20;99.90;;;;;;5069496;28;20227;-68
2022/10/05 02:08:25;;;;;;;3.97;2.27;;;7.20;99.90;;;;;;5055926;28;20555;-66
2022/10/05 02:11:01;;;;;;;3.00;2.37;;;7.10;99.90;;;;;;5055112;28;20210;-67
2022/10/05 02:13:35;;;;;;;5.20;2.37;;;7.10;99.90;;;;;;5056415;28;20214;-67
2022/10/05 02:16:10;;;;;;;4.60;2.13;;;7.10;99.90;;;;;;5054538;28;20219;-67
2022/10/05 02:18:47;;;;;;;4.27;2.00;;;7.10;99.90;;;;;;5055996;28;20196;-67
2022/10/05 02:21:16;;;;;;;4.57;2.20;;;7.00;99.90;;;;;;5072856;28;20238;-69
2022/10/05 02:23:48;;;;;;;2.30;2.07;;;7.00;99.90;;;;;;5073708;28;20229;-68
2022/10/05 02:26:18;;;;;;;3.00;2.70;;;7.10;99.90;;;;;;5074641;28;20222;-68
2022/10/05 02:28:52;;;;;;;3.13;2.47;;;7.10;99.90;;;;;;5074232;28;20199;-67
2022/10/05 02:31:27;;;;;;;4.90;3.00;;;7.10;99.90;;;;;;5075779;28;20199;-67
2022/10/05 02:34:24;;;;;;;4.83;2.37;;;7.10;99.90;;;;;;5074180;28;20206;-68
2022/10/05 02:37:11;;;;;;;4.70;3.00;;;7.10;99.90;;;;;;5058666;28;20242;-68
2022/10/05 02:39:52;;;;;;;4.43;3.07;;;7.10;99.90;;;;;;5053932;28;20200;-67
2022/10/05 02:42:27;;;;;;;4.83;2.80;;;7.00;99.90;;;;;;5054421;28;20204;-67
2022/10/05 02:45:03;;;;;;;5.77;2.60;;;7.00;99.90;;;;;;5054001;28;20223;-67
2022/10/05 02:47:41;;;;;;;7.17;2.97;;;6.90;99.90;;;;;;5053949;28;20215;-67
2022/10/05 02:50:23;;;;;;;3.30;2.80;;;6.90;99.90;;;;;;5054362;28;20199;-68
2022/10/05 02:53:02;;;;;;;5.13;2.57;;;6.90;99.90;;;;;;5053983;28;20200;-68
2022/10/05 02:55:40;;;;;;;5.60;2.87;;;6.90;99.90;;;;;;5053717;28;20230;-69
2022/10/05 02:58:16;;;;;;;4.33;2.63;;;6.80;99.90;;;;;;5053798;28;20199;-67
2022/10/05 03:00:49;;;;;;;3.90;2.63;;;6.80;99.90;;;;;;5053702;28;20591;-67
2022/10/05 03:03:26;;;;;;;6.57;3.33;;;6.80;99.90;;;;;;5055477;28;20222;-67
2022/10/05 03:06:00;;;;;;;5.23;3.13;;;6.80;99.90;;;;;;5055123;28;20699;-68
2022/10/05 03:08:36;;;;;;;5.07;2.73;;;6.70;99.90;;;;;;5053913;28;20203;-68
2022/10/05 03:11:14;;;;;;;3.80;2.67;;;6.70;99.90;;;;;;5053866;28;20592;-68
2022/10/05 03:13:50;;;;;;;3.07;2.57;;;6.70;99.90;;;;;;5053520;28;20195;-68
2022/10/05 03:16:35;;;;;;;4.83;2.17;;;6.60;99.90;;;;;;5052957;28;20669;-68
2022/10/05 03:19:21;;;;;;;5.07;2.50;;;6.60;99.90;;;;;;5055205;28;20203;-68
2022/10/05 03:21:59;;;;;;;2.97;2.60;;;6.60;99.90;;;;;;5053454;28;20585;-68
2022/10/05 03:25:03;;;;;;;5.07;2.40;;;6.60;99.90;;;;;;5053402;28;20602;-68
2022/10/05 03:27:39;;;;;;;7.27;2.80;;;6.60;99.90;;;;;;5053849;28;20218;-68
2022/10/05 03:30:16;;;;;;;2.47;2.20;;;6.60;99.90;;;;;;5054909;28;20207;-67
2022/10/05 03:32:56;;;;;;;7.47;3.03;;;6.50;99.90;;;;;;5053545;28;20210;-67
2022/10/05 03:35:32;;;;;;;4.13;2.57;;;6.50;99.90;;;;;;5053345;28;20230;-67
2022/10/05 03:38:09;;;;;;;4.70;2.90;;;6.50;99.90;;;;;;5054878;28;20206;-67
2022/10/05 03:40:44;;;;;;;6.00;2.70;;;6.40;99.90;;;;;;5052834;28;20207;-68
2022/10/05 03:43:31;;;;;;;4.23;3.07;;;6.40;99.90;;;;;;5053009;28;20206;-67
2022/10/05 03:46:06;;;;;;;7.70;3.40;;;6.40;99.90;;;;;;5052740;28;20223;-67
2022/10/05 03:48:44;;;;;;;5.57;2.80;;;6.40;99.90;;;;;;5053116;28;20199;-69
2022/10/05 03:51:21;;;;;;;5.60;2.80;;;6.40;99.90;;;;;;5053147;28;20214;-67
2022/10/05 03:53:55;;;;;;;10.07;3.33;;;6.30;99.90;;;;;;5053034;28;20195;-67
2022/10/05 03:56:34;;;;;;;5.70;2.87;;;6.30;99.90;;;;;;5053119;28;20690;-68
2022/10/05 03:59:12;;;;;;;6.93;3.00;;;6.30;99.90;;;;;;5053230;28;20192;-67
2022/10/05 04:01:45;;;;;;;5.20;3.03;;;6.30;99.90;;;;;;5052974;28;20211;-67
2022/10/05 04:04:21;;;;;;;4.37;3.00;;;6.30;99.90;;;;;;5052636;28;20664;-68
2022/10/05 04:06:54;;;;;;;3.33;2.80;;;6.30;99.90;;;;;;5052798;28;20222;-68
2022/10/05 04:09:27;;;;;;;5.07;3.50;;;6.30;99.90;;;;;;5054069;28;20188;-68
2022/10/05 04:12:08;;;;;;;4.93;3.10;;;6.30;99.90;;;;;;5052856;28;20184;-69
2022/10/05 04:14:41;;;;;;;3.10;2.50;;;6.30;99.90;;;;;;5052623;28;20191;-68
2022/10/05 04:17:14;;;;;;;3.73;2.37;;;6.20;99.90;;;;;;5052154;28;20211;-68
2022/10/05 04:19:50;;;;;;;5.07;2.57;;;6.20;99.90;;;;;;5053911;28;20188;-67
2022/10/05 04:22:25;;;;;;;4.57;2.80;;;6.20;99.90;;;;;;5053698;28;20702;-68
2022/10/05 04:24:58;;;;;;;5.63;2.93;;;6.20;99.90;;;;;;5052570;28;20192;-67
2022/10/05 04:27:33;;;;;;;4.30;2.70;;;6.20;99.90;;;;;;5051527;28;20180;-68
2022/10/05 04:30:07;;;;;;;5.87;4.00;;;6.10;99.90;;;;;;5053719;28;20186;-67
2022/10/05 04:32:38;;;;;;;5.80;3.77;;;6.10;99.90;;;;;;5053648;28;20210;-67
2022/10/05 04:35:37;;;;;;;5.33;3.30;;;6.10;99.90;;;;;;5052314;28;20581;-68
2022/10/05 04:38:22;;;;;;;6.13;4.10;;;6.10;99.90;;;;;;5053526;28;20184;-68
2022/10/05 04:41:05;;;;;;;8.23;5.23;;;6.10;99.90;;;;;;5052316;28;20195;-66
2022/10/05 04:43:45;;;;;;;7.03;3.47;;;6.10;99.90;;;;;;5053369;28;20216;-67
2022/10/05 04:46:24;;;;;;;7.53;3.83;;;6.10;99.90;;;;;;5052021;28;20584;-67
2022/10/05 04:49:13;;;;;;;5.93;3.80;;;6.00;99.90;;;;;;5053313;28;20184;-67
2022/10/05 04:51:52;;;;;;;10.40;3.50;;;6.00;99.90;;;;;;5052168;28;20551;-67
2022/10/05 04:54:35;;;;;;;4.80;2.80;;;6.00;99.90;;;;;;5052317;28;20191;-67
2022/10/05 04:57:11;;;;;;;5.27;3.33;;;6.00;99.90;;;;;;5051981;28;20548;-66
2022/10/05 05:00:01;;;;;;;5.50;2.87;;;6.00;99.90;;;;;;5051833;28;20183;-66
2022/10/05 05:02:47;;;;;;;3.40;2.73;;;5.90;99.90;;;;;;5051806;28;20222;-67
2022/10/05 05:05:31;;;;;;;4.77;2.90;;;5.90;99.90;;;;;;5051688;28;20211;-67
2022/10/05 05:08:16;;;;;;;5.03;2.70;;;5.90;99.90;;;;;;5052903;28;20196;-68
2022/10/05 05:11:13;;;;;;;6.87;3.93;;;5.90;99.90;;;;;;5052897;28;20525;-67
2022/10/05 05:14:16;;;;;;;8.30;4.43;;;5.90;99.90;;;;;;5051689;28;20188;-68
2022/10/05 05:16:52;;;;;;;5.73;3.60;;;5.90;99.90;;;;;;5051616;28;20211;-67
2022/10/05 05:19:39;;;;;;;7.43;3.67;;;5.90;99.90;;;;;;5051578;28;20188;-68
2022/10/05 05:22:20;;;;;;;6.67;2.97;;;5.90;99.90;;;;;;5051431;28;20675;-67
2022/10/05 05:25:03;;;;;;;7.37;3.57;;;5.80;99.90;;;;;;5051458;28;20191;-67
2022/10/05 05:27:42;;;;;;;7.40;3.43;;;5.80;99.90;;;;;;5051379;28;20207;-68
2022/10/05 05:30:22;;;;;;;4.30;3.40;;;5.80;99.90;;;;;;5051485;28;20203;-67
2022/10/05 05:33:14;;;;;;;6.80;3.50;;;5.80;99.90;;;;;;5051501;28;20191;-67
2022/10/05 05:36:13;;;;;;;19.73;10.07;;;5.80;99.90;;;;;;5051326;28;20227;-67
2022/10/05 05:38:48;;;;;;;28.70;10.93;;;5.80;99.90;;;;;;5050977;28;20628;-67
2022/10/05 05:41:26;;;;;;;16.97;9.00;;;5.80;99.90;;;;;;5051283;28;20187;-67
2022/10/05 05:44:05;;;;;;;21.80;10.33;;;5.80;99.90;;;;;;5052310;28;20242;-67
2022/10/05 05:46:37;;;;;;;13.43;10.20;;;5.80;99.90;;;;;;5050975;28;20207;-68
2022/10/05 05:49:38;;;;;;;11.27;8.60;;;5.80;99.90;;;;;;5051089;28;20227;-68
2022/10/05 05:52:14;;;;;;;8.67;5.10;;;5.80;99.90;;;;;;5051181;28;20184;-68
2022/10/05 05:54:48;;;;;;;7.13;4.03;;;5.80;99.90;;;;;;5052211;28;20183;-68
2022/10/05 05:57:21;;;;;;;13.27;8.83;;;5.80;99.90;;;;;;5051061;28;20649;-67
2022/10/05 06:00:00;;;;;;;12.57;7.47;;;5.80;99.90;;;;;;5051088;28;20180;-67
2022/10/05 06:02:39;;;;;;;11.43;8.83;;;5.80;99.90;;;;;;5052118;28;20222;-67
2022/10/05 06:05:23;;;;;;;14.43;13.00;;;5.80;99.90;;;;;;5050732;28;20227;-68
2022/10/05 06:07:54;;;;;;;12.23;11.17;;;5.80;99.90;;;;;;5050987;28;20183;-68
2022/10/05 06:10:31;;;;;;;7.30;6.60;;;5.90;99.90;;;;;;5050979;28;20195;-67
2022/10/05 06:13:16;;;;;;;9.33;6.20;;;5.90;99.90;;;;;;5050990;28;20210;-68
2022/10/05 06:15:51;;;;;;;8.40;6.53;;;5.90;99.90;;;;;;5050819;28;20219;-68
2022/10/05 06:18:22;;;;;;;7.60;6.53;;;5.90;99.90;;;;;;5050873;28;20188;-68
2022/10/05 06:20:59;;;;;;;7.37;6.57;;;6.00;99.90;;;;;;5050886;28;20180;-67
2022/10/05 06:23:35;;;;;;;11.00;6.47;;;6.00;99.90;;;;;;5051941;28;20215;-69
2022/10/05 06:26:15;;;;;;;8.90;5.90;;;6.00;99.90;;;;;;5051961;28;20582;-68
2022/10/05 06:28:51;;;;;;;9.53;6.97;;;6.00;99.90;;;;;;5050838;28;20184;-66
2022/10/05 06:31:37;;;;;;;10.77;6.30;;;6.00;99.90;;;;;;5050735;28;20191;-67
2022/10/05 06:34:26;;;;;;;16.53;10.17;;;6.00;99.90;;;;;;5050734;28;20540;-68
2022/10/05 06:37:00;;;;;;;15.80;9.20;;;6.10;99.90;;;;;;5050607;28;20223;-68
2022/10/05 06:39:49;;;;;;;16.40;8.73;;;6.10;99.90;;;;;;5050657;28;20187;-67
2022/10/05 06:42:29;;;;;;;15.03;9.03;;;6.20;99.90;;;;;;5050697;28;20188;-68
2022/10/05 06:45:21;;;;;;;13.60;8.57;;;6.30;99.90;;;;;;5050623;28;20230;-68
2022/10/05 06:48:24;;;;;;;12.00;7.70;;;6.40;99.90;;;;;;5051551;28;20212;-67
2022/10/05 06:51:23;;;;;;;12.40;7.70;;;6.50;99.90;;;;;;5052246;28;20199;-68
2022/10/05 06:54:19;;;;;;;14.73;8.20;;;6.60;99.90;;;;;;5054331;28;20184;-69
2022/10/05 06:56:56;;;;;;;12.30;8.17;;;6.70;99.90;;;;;;5054271;28;20233;-68
2022/10/05 06:59:32;;;;;;;13.37;8.10;;;6.90;99.90;;;;;;5054313;28;20639;-68
2022/10/05 07:02:09;;;;;;;18.17;9.23;;;7.00;99.90;;;;;;5055443;28;20573;-68
2022/10/05 07:04:51;;;;;;;14.37;8.57;;;7.10;99.90;;;;;;5053859;28;20222;-67
2022/10/05 07:07:29;;;;;;;12.43;7.40;;;7.20;99.90;;;;;;5053971;28;20660;-68
2022/10/05 07:10:15;;;;;;;10.53;6.47;;;7.20;99.90;;;;;;5053968;28;20187;-68
2022/10/05 07:12:58;;;;;;;12.20;6.13;;;7.40;99.90;;;;;;5055172;28;20196;-69
2022/10/05 07:15:40;;;;;;;8.07;5.30;;;7.50;99.90;;;;;;5053924;28;20211;-68
2022/10/05 07:18:29;;;;;;;10.37;5.20;;;7.70;99.90;;;;;;5037125;28;20200;-68
2022/10/05 07:21:06;;;;;;;7.77;5.10;;;7.80;99.90;;;;;;5053830;28;20195;-69
2022/10/05 07:23:59;;;;;;;8.83;4.60;;;7.90;99.90;;;;;;5053606;28;20207;-68
2022/10/05 07:26:33;;;;;;;9.33;5.53;;;8.00;99.90;;;;;;5054801;28;20582;-69
2022/10/05 07:29:32;;;;;;;10.27;5.60;;;8.10;99.90;;;;;;5053758;28;20183;-69
2022/10/05 07:32:12;;;;;;;10.40;6.07;;;8.20;99.90;;;;;;5037873;28;20207;-69
2022/10/05 07:34:50;;;;;;;10.10;6.57;;;8.30;99.90;;;;;;5053369;28;20180;-69
2022/10/05 07:40:19;;;;;;;9.80;6.60;;;8.50;99.90;;;;;;5054622;28;20195;-69
2022/10/05 07:43:02;;;;;;;10.57;6.53;;;8.70;99.90;;;;;;5054562;28;20539;-70
2022/10/05 07:45:41;;;;;;;10.53;6.57;;;8.80;99.90;;;;;;5053144;28;20234;-71
2022/10/05 07:48:15;;;;;;;11.70;6.87;;;8.90;99.90;;;;;;5053208;28;20200;-71
2022/10/05 07:50:56;;;;;;;10.20;7.30;;;9.00;99.90;;;;;;5053359;28;20187;-71
2022/10/05 07:53:32;;;;;;;12.13;9.33;;;9.20;99.90;;;;;;5053247;28;20187;-70
2022/10/05 07:56:08;;;;;;;12.67;7.60;;;9.40;99.90;;;;;;5054198;28;20218;-70
2022/10/05 07:58:42;;;;;;;11.20;7.13;;;9.60;99.90;;;;;;5053128;28;20561;-69
2022/10/05 08:01:17;;;;;;;11.03;7.30;;;9.70;99.90;;;;;;5052762;28;20190;-70
2022/10/05 08:03:54;;;;;;;10.33;7.83;;;9.90;99.90;;;;;;5052870;28;20187;-71
2022/10/05 08:06:47;;;;;;;11.30;8.03;;;10.00;99.90;;;;;;5054000;28;20212;-70
2022/10/05 08:09:33;;;;;;;12.53;9.07;;;10.20;99.90;;;;;;5054053;28;20531;-70
2022/10/05 08:12:16;;;;;;;11.73;8.90;;;10.30;99.90;;;;;;5053941;28;20663;-70
2022/10/05 08:14:51;;;;;;;13.13;9.20;;;10.40;99.90;;;;;;5053907;28;20180;-71
2022/10/05 08:17:30;;;;;;;11.50;8.57;;;10.50;99.90;;;;;;5053916;28;20191;-69
2022/10/05 08:20:07;;;;;;;11.50;8.43;;;10.80;99.90;;;;;;5053835;28;20186;-70
2022/10/05 08:22:43;;;;;;;13.17;8.20;;;11.00;99.90;;;;;;5053926;28;20184;-70
2022/10/05 08:25:21;;;;;;;12.68;8.70;;;11.10;99.90;;;;;;5053640;28;20231;-69
2022/10/05 08:27:56;;;;;;;9.90;7.93;;;11.40;99.90;;;;;;5053589;28;20652;-70
2022/10/05 08:30:25;;;;;;;13.93;8.02;;;11.60;99.90;;;;;;5053721;28;20662;-71
2022/10/05 08:33:00;;;;;;;12.80;8.10;;;11.70;99.90;;;;;;5053559;28;20192;-69
2022/10/05 08:35:35;;;;;;;10.75;7.80;;;11.90;99.90;;;;;;5053410;28;20589;-70
2022/10/05 08:38:11;;;;;;;12.30;8.00;;;12.10;99.90;;;;;;5053506;28;20190;-70
2022/10/05 08:41:14;;;;;;;10.88;7.63;;;12.30;99.90;;;;;;5053410;28;20191;-69
2022/10/05 08:44:17;;;;;;;9.27;7.35;;;12.40;99.90;;;;;;5053290;28;20192;-70
2022/10/05 08:47:19;;;;;;;10.95;7.55;;;12.80;99.90;;;;;;5053100;28;20231;-71
2022/10/05 08:50:22;;;;;;;12.02;7.07;;;13.00;99.90;;;;;;5022047;28;20210;-71
2022/10/05 08:53:28;;;;;;;9.27;6.68;;;13.20;99.90;;;;;;5053097;28;20199;-72
2022/10/05 08:56:25;;;;;;;9.43;6.70;;;13.20;99.90;;;;;;5017448;28;20231;-70
2022/10/05 08:59:28;;;;;;;10.07;6.63;;;13.40;99.90;;;;;;5051962;28;20195;-71
2022/10/05 09:02:14;;;;;;;9.57;6.97;;;13.60;99.90;;;;;;5041250;28;20226;-71
2022/10/05 09:05:00;;;;;;;8.25;6.47;;;13.70;99.90;;;;;;5052810;28;20562;-72
2022/10/05 09:08:17;;;;;;;8.18;6.00;;;13.90;99.90;;;;;;5052977;28;20203;-71
2022/10/05 09:11:03;;;;;;;8.10;6.82;;;14.20;99.90;;;;;;5020539;28;20208;-72
2022/10/05 09:14:05;;;;;;;9.73;5.50;;;14.60;99.90;;;;;;5051346;28;20219;-70
2022/10/05 09:16:50;;;;;;;8.25;6.03;;;14.80;99.90;;;;;;5030191;28;20234;-71
2022/10/05 09:19:42;;;;;;;6.18;5.45;;;15.20;99.90;;;;;;5052804;28;20625;-73
2022/10/05 09:22:16;;;;;;;7.82;6.03;;;15.30;99.90;;;;;;5052670;28;20184;-72
2022/10/05 09:24:55;;;;;;;8.10;5.65;;;15.40;99.90;;;;;;5052636;28;20222;-72
2022/10/05 09:27:36;;;;;;;7.57;5.78;;;15.50;99.90;;;;;;5052680;28;20195;-71
2022/10/05 09:30:25;;;;;;;7.32;5.70;;;15.60;99.90;;;;;;5052590;28;20188;-72
2022/10/05 09:33:29;;;;;;;8.35;5.95;;;15.80;99.90;;;;;;5052580;28;20184;-72
2022/10/05 09:36:32;;;;;;;7.05;5.85;;;16.10;99.90;;;;;;5052454;28;20211;-72
2022/10/05 09:39:24;;;;;;;7.05;5.63;;;16.50;99.90;;;;;;5052938;28;20254;-70
2022/10/05 09:42:22;;;;;;;6.65;5.95;;;16.70;99.90;;;;;;5052630;28;20218;-72
2022/10/05 09:45:21;;;;;;;8.73;5.15;;;16.60;99.90;;;;;;5052263;28;20690;-71
2022/10/05 09:48:20;;;;;;;6.55;5.15;;;16.90;99.90;;;;;;5051390;28;20223;-72
2022/10/05 09:51:18;;;;;;;5.18;4.65;;;17.00;99.90;;;;;;5052294;28;20199;-73
2022/10/05 09:54:28;;;;;;;6.18;4.53;;;16.90;99.90;;;;;;5052351;28;20180;-72
2022/10/05 09:57:32;;;;;;;5.18;4.68;;;16.70;99.90;;;;;;5052219;28;20235;-72
2022/10/05 10:00:33;;;;;;;6.43;5.18;;;16.60;99.90;;;;;;5042196;28;20212;-70
2022/10/05 10:04:29;;;;;;;9.55;5.50;;;16.90;99.90;;;;;;5012219;28;20200;-71
2022/10/05 10:07:31;;;;;;;6.85;5.28;;;17.10;99.90;;;;;;5052128;28;20230;-71
2022/10/05 10:10:32;;;;;;;6.20;5.55;;;17.40;99.90;;;;;;5052132;28;20188;-70
2022/10/05 10:13:29;;;;;;;7.30;5.95;;;17.60;99.90;;;;;;5052087;28;20187;-70
2022/10/05 10:16:12;;;;;;;6.60;5.57;;;17.70;99.90;;;;;;5051957;28;20675;-71
2022/10/05 10:19:05;;;;;;;5.15;4.43;;;17.70;99.90;;;;;;5051996;28;20192;-70
2022/10/05 10:22:01;;;;;;;5.50;4.57;;;17.60;99.90;;;;;;5052012;28;20188;-71
2022/10/05 10:24:56;;;;;;;8.95;4.30;;;17.60;99.90;;;;;;5052344;28;20696;-70
2022/10/05 10:27:52;;;;;;;6.20;5.18;;;17.70;99.90;;;;;;5053976;28;20726;-70
2022/10/05 10:30:43;;;;;;;6.65;4.60;;;17.90;99.90;;;;;;5055889;28;20188;-71
2022/10/05 10:33:29;;;;;;;6.53;5.03;;;18.00;99.90;;;;;;5055876;28;20678;-70
2022/10/05 10:36:03;;;;;;;8.13;3.90;;;18.10;99.90;;;;;;5055897;28;20223;-71
2022/10/05 10:38:53;;;;;;;6.38;3.92;;;18.20;99.90;;;;;;5055784;28;20191;-71
2022/10/05 10:42:04;;;;;;;4.22;3.83;;;18.20;99.90;;;;;;5055625;28;20176;-70
2022/10/05 10:45:27;;;;;;;6.20;4.93;;;18.20;99.90;;;;;;5040627;28;20196;-71
2022/10/05 10:48:02;;;;;;;6.60;4.32;;;18.10;99.90;;;;;;4994216;28;20205;-72
2022/10/05 10:51:03;;;;;;;5.38;4.25;;;18.20;99.90;;;;;;5044432;28;20214;-73
2022/10/05 10:54:07;;;;;;;6.18;4.60;;;18.30;99.90;;;;;;5056256;28;20203;-71
2022/10/05 10:57:01;;;;;;;4.20;3.80;;;18.40;99.90;;;;;;5036784;28;20226;-72
2022/10/05 11:00:02;;;;;;;5.43;4.22;;;18.50;99.90;;;;;;5053675;28;20203;-76
2022/10/05 11:03:03;;;;;;;5.38;4.30;;;18.50;99.90;;;;;;5055567;28;20206;-73
2022/10/05 11:05:58;;;;;;;6.45;4.22;;;18.60;99.90;;;;;;5055113;28;20212;-73
2022/10/05 11:09:13;;;;;;;6.63;4.00;;;18.70;99.90;;;;;;5046448;28;20200;-73
2022/10/05 11:12:25;;;;;;;6.72;4.05;;;18.80;99.90;;;;;;5050921;28;20203;-72
2022/10/05 11:15:18;;;;;;;5.68;4.57;;;19.10;99.90;;;;;;5055126;28;20216;-73
2022/10/05 11:17:58;;;;;;;4.47;3.90;;;19.20;99.90;;;;;;5055018;28;20567;-72
2022/10/05 11:20:54;;;;;;;5.05;3.88;;;19.40;99.90;;;;;;5055077;28;20183;-72
2022/10/05 11:23:38;;;;;;;5.10;3.72;;;19.50;99.90;;;;;;5055013;28;20662;-71
2022/10/05 11:26:23;;;;;;;5.05;3.85;;;19.60;99.90;;;;;;5054776;28;20595;-72
2022/10/05 11:29:36;;;;;;;4.72;4.20;;;19.80;99.90;;;;;;5054787;28;20211;-71
2022/10/05 11:32:40;;;;;;;5.65;3.78;;;19.80;99.90;;;;;;4993323;28;20209;-72
2022/10/05 11:36:19;;;;;;;4.95;3.55;;;19.80;99.90;;;;;;4995564;28;20245;-73
2022/10/05 11:39:21;;;;;;;5.55;3.00;;;19.90;99.90;;;;;;5047660;28;20207;-74
2022/10/05 11:42:25;;;;;;;7.25;4.90;;;20.00;99.90;;;;;;5054593;28;20218;-72
2022/10/05 11:45:26;;;;;;;7.45;4.20;;;20.00;99.90;;;;;;5037303;28;20207;-73
2022/10/05 11:48:26;;;;;;;5.53;3.75;;;20.20;99.90;;;;;;5054311;28;20233;-74
2022/10/05 11:51:17;;;;;;;5.28;3.78;;;20.20;99.90;;;;;;5054360;28;20180;-74
2022/10/05 11:53:57;;;;;;;3.78;2.97;;;20.40;99.90;;;;;;5054366;28;20192;-74
2022/10/05 11:56:33;;;;;;;4.28;3.03;;;20.50;98.80;;;;;;5054353;28;20215;-73
2022/10/05 11:59:09;;;;;;;5.50;4.20;;;20.40;99.20;;;;;;5054249;28;20199;-70
2022/10/05 12:01:44;;;;;;;4.13;3.05;;;20.40;99.30;;;;;;5054222;28;20195;-72
2022/10/05 12:04:30;;;;;;;5.53;3.20;;;20.50;98.80;;;;;;5054170;28;20187;-72
2022/10/05 12:07:08;;;;;;;3.08;2.55;;;20.50;99.60;;;;;;5054000;28;20226;-71
2022/10/05 12:10:16;;;;;;;3.63;2.78;;;20.70;99.20;;;;;;5054145;28;20183;-71
2022/10/05 12:12:59;;;;;;;3.83;3.00;;;20.60;99.30;;;;;;5054049;28;20206;-72
2022/10/05 12:15:35;;;;;;;5.55;2.90;;;20.70;98.00;;;;;;5053906;28;20211;-72
2022/10/05 12:18:12;;;;;;;4.43;2.80;;;20.80;98.90;;;;;;5053823;28;20188;-72
2022/10/05 12:20:47;;;;;;;4.28;3.45;;;20.80;98.10;;;;;;5053873;28;20184;-72
2022/10/05 12:23:24;;;;;;;3.63;2.90;;;20.80;99.10;;;;;;5053790;28;20250;-73
2022/10/05 12:25:59;;;;;;;3.70;2.35;;;20.90;98.50;;;;;;5053642;28;20215;-73
2022/10/05 12:28:34;;;;;;;2.70;2.40;;;21.00;98.30;;;;;;5053690;28;20215;-73
2022/10/05 12:31:24;;;;;;;3.55;2.83;;;20.90;98.10;;;;;;5053632;28;20586;-73
2022/10/05 12:34:02;;;;;;;4.47;2.90;;;21.00;97.70;;;;;;5053604;28;20697;-72
2022/10/05 12:36:37;;;;;;;4.47;3.40;;;21.00;97.00;;;;;;5053494;28;20231;-72
2022/10/05 12:39:38;;;;;;;3.08;2.78;;;21.00;97.40;;;;;;5053637;28;20180;-72
2022/10/05 12:42:24;;;;;;;4.32;2.58;;;21.20;96.70;;;;;;5053426;28;20667;-71
2022/10/05 12:45:17;;;;;;;2.80;2.47;;;21.10;97.50;;;;;;5053270;28;20192;-72
2022/10/05 12:48:06;;;;;;;2.78;2.42;;;21.10;97.40;;;;;;5052719;28;20224;-72
2022/10/05 12:50:37;;;;;;;2.95;2.28;;;21.20;96.50;;;;;;5053306;28;20180;-73
2022/10/05 12:53:34;;;;;;;3.42;2.00;;;21.20;96.00;;;;;;5053326;28;20655;-72
2022/10/05 12:56:10;;;;;;;5.13;2.55;;;21.10;96.50;;;;;;5053082;28;20238;-72
2022/10/05 12:58:51;;;;;;;5.00;2.17;;;21.00;96.70;;;;;;5053217;28;20188;-72
2022/10/05 13:01:29;;;;;;;3.30;2.30;;;20.90;97.10;;;;;;5053171;28;20341;-72
2022/10/05 13:04:08;;;;;;;6.80;2.75;;;20.90;97.20;;;;;;5053074;28;20184;-72
2022/10/05 13:06:44;;;;;;;4.57;2.40;;;20.90;96.90;;;;;;5051818;28;20709;-72
2022/10/05 13:09:23;;;;;;;4.95;2.45;;;20.80;97.70;;;;;;5052932;28;20192;-73
2022/10/05 13:11:59;;;;;;;3.65;2.30;;;20.80;97.20;;;;;;5052938;28;20556;-72
2022/10/05 13:14:47;;;;;;;4.82;3.25;;;20.90;97.00;;;;;;5052965;28;20644;-72
2022/10/05 13:17:24;;;;;;;3.05;2.40;;;20.90;97.50;;;;;;5052831;28;20188;-72
2022/10/05 13:19:58;;;;;;;2.60;2.22;;;20.90;97.10;;;;;;5052835;28;20198;-73
2022/10/05 13:22:34;;;;;;;2.97;2.13;;;20.70;97.70;;;;;;5052747;28;20180;-73
2022/10/05 13:25:19;;;;;;;3.80;2.97;;;20.60;97.40;;;;;;5052554;28;20216;-72
2022/10/05 13:28:05;;;;;;;3.90;2.78;;;20.60;97.40;;;;;;5052640;28;20219;-72
2022/10/05 13:30:35;;;;;;;4.00;2.90;;;20.60;96.90;;;;;;5052588;28;20194;-72
2022/10/05 13:33:07;;;;;;;4.40;2.60;;;20.50;97.30;;;;;;5052522;28;20199;-71
2022/10/05 13:35:44;;;;;;;6.25;2.92;;;20.50;97.70;;;;;;5052486;28;20226;-71
2022/10/05 13:38:27;;;;;;;6.72;3.63;;;20.60;97.70;;;;;;5052702;28;20254;-71
2022/10/05 13:41:06;;;;;;;4.43;2.97;;;20.60;97.70;;;;;;5052460;28;20211;-70
2022/10/05 13:43:44;;;;;;;3.85;2.75;;;20.60;97.60;;;;;;5051136;28;20199;-72
2022/10/05 13:46:23;;;;;;;4.88;3.10;;;20.60;97.20;;;;;;5052312;28;20596;-72
2022/10/05 13:49:03;;;;;;;4.25;2.42;;;20.50;97.30;;;;;;5052285;28;20222;-71
2022/10/05 13:51:40;;;;;;;4.88;3.08;;;20.40;97.50;;;;;;5052358;28;20542;-73
2022/10/05 13:54:17;;;;;;;5.07;2.95;;;20.40;97.80;;;;;;5052322;28;20184;-70
2022/10/05 13:56:52;;;;;;;4.03;3.00;;;20.40;97.60;;;;;;5052229;28;20211;-71
2022/10/05 13:59:32;;;;;;;3.80;2.78;;;20.40;97.80;;;;;;5051997;28;20191;-70
2022/10/05 14:02:06;;;;;;;6.25;2.85;;;20.40;97.70;;;;;;5052281;28;20194;-72
2022/10/05 14:04:45;;;;;;;3.95;2.67;;;20.30;97.50;;;;;;5052241;28;20663;-72
2022/10/05 14:07:25;;;;;;;5.20;3.50;;;20.30;97.50;;;;;;5051090;28;20644;-73
2022/10/05 14:09:53;;;;;;;5.20;3.65;;;20.20;98.10;;;;;;5052158;28;20191;-73
2022/10/05 14:12:23;;;;;;;5.18;2.92;;;20.20;98.60;;;;;;5052012;28;20196;-71
2022/10/05 14:14:55;;;;;;;4.22;2.85;;;20.20;97.60;;;;;;5051979;28;20206;-72